createdAt,value
2017-12-12T00:00:50.799Z,85.00
2017-12-12T00:01:53.355Z,84.60
2017-12-12T00:02:55.867Z,84.40
2017-12-12T00:03:59.151Z,84.70
2017-12-12T00:05:02.432Z,85.00
2017-12-12T00:06:05.726Z,85.10
2017-12-12T00:07:08.290Z,85.10
2017-12-12T00:08:10.807Z,84.70
2017-12-12T00:09:13.317Z,84.70
2017-12-12T00:10:16.594Z,84.90
2017-12-12T00:11:19.882Z,84.90
2017-12-12T00:12:23.190Z,84.50
2017-12-12T00:13:25.714Z,84.50
2017-12-12T00:14:28.231Z,84.50
2017-12-12T00:15:30.779Z,84.90
2017-12-12T00:16:33.293Z,84.30
2017-12-12T00:17:35.811Z,84.30
2017-12-12T00:18:38.326Z,84.30
2017-12-12T00:19:40.909Z,84.40
2017-12-12T00:20:43.470Z,84.40
2017-12-12T00:21:45.980Z,84.70
2017-12-12T00:22:48.493Z,84.50
2017-12-12T00:23:51.038Z,83.90
2017-12-12T00:24:53.559Z,83.70
2017-12-12T00:25:56.876Z,83.40
2017-12-12T00:26:59.398Z,83.40
2017-12-12T00:28:02.669Z,83.30
2017-12-12T00:29:05.214Z,83.20
2017-12-12T00:30:07.730Z,83.00
2017-12-12T00:31:10.246Z,82.90
2017-12-12T00:32:12.797Z,83.10
2017-12-12T00:33:15.319Z,82.70
2017-12-12T00:34:18.598Z,81.90
2017-12-12T00:35:21.907Z,81.70
2017-12-12T00:36:24.423Z,81.70
2017-12-12T00:37:26.970Z,81.90
2017-12-12T00:38:29.484Z,81.90
2017-12-12T00:39:32.007Z,81.80
2017-12-12T00:40:34.532Z,82.10
2017-12-12T00:41:37.085Z,82.00
2017-12-12T00:42:40.385Z,81.40
2017-12-12T00:43:42.942Z,81.40
2017-12-12T00:44:45.463Z,81.60
2017-12-12T00:45:47.974Z,81.40
2017-12-12T00:46:50.494Z,81.20
2017-12-12T00:47:53.053Z,81.40
2017-12-12T00:48:55.607Z,81.80
2017-12-12T00:49:58.126Z,81.30
2017-12-12T00:51:01.430Z,80.50
2017-12-12T00:52:03.945Z,80.50
2017-12-12T00:53:06.454Z,80.80
2017-12-12T00:54:09.026Z,80.30
2017-12-12T00:55:11.564Z,80.50
2017-12-12T00:56:14.848Z,80.60
2017-12-12T00:57:18.129Z,80.90
2017-12-12T00:58:20.644Z,80.90
2017-12-12T00:59:23.201Z,80.90
2017-12-12T01:00:25.718Z,80.70
2017-12-12T01:01:28.241Z,80.40
2017-12-12T01:02:30.745Z,80.60
2017-12-12T01:03:33.253Z,80.40
2017-12-12T01:04:35.820Z,80.50
2017-12-12T01:05:38.341Z,80.00
2017-12-12T01:06:40.850Z,80.10
2017-12-12T01:07:43.369Z,79.80
2017-12-12T01:08:45.884Z,79.90
2017-12-12T01:09:48.444Z,80.00
2017-12-12T01:10:50.970Z,79.80
2017-12-12T01:11:53.488Z,80.20
2017-12-12T01:12:56.000Z,79.70
2017-12-12T01:13:58.523Z,79.70
2017-12-12T01:15:01.078Z,79.50
2017-12-12T01:16:03.592Z,80.10
2017-12-12T01:17:06.130Z,79.80
2017-12-12T01:18:08.641Z,79.60
2017-12-12T01:19:11.162Z,80.00
2017-12-12T01:20:13.737Z,79.50
2017-12-12T01:21:16.258Z,79.80
2017-12-12T01:22:19.545Z,79.80
2017-12-12T01:23:22.822Z,79.90
2017-12-12T01:24:26.106Z,79.90
2017-12-12T01:25:28.678Z,79.90
2017-12-12T01:26:31.192Z,80.20
2017-12-12T01:27:33.701Z,79.90
2017-12-12T01:28:36.983Z,80.10
2017-12-12T01:29:40.300Z,80.10
2017-12-12T01:30:42.820Z,80.10
2017-12-12T01:31:45.339Z,80.90
2017-12-12T01:32:47.883Z,80.40
2017-12-12T01:33:50.409Z,80.10
2017-12-12T01:34:52.927Z,80.10
2017-12-12T01:35:55.554Z,79.70
2017-12-12T01:36:58.865Z,79.80
2017-12-12T01:38:01.390Z,79.70
2017-12-12T01:39:03.902Z,80.00
2017-12-12T01:40:06.413Z,80.10
2017-12-12T01:41:08.963Z,80.20
2017-12-12T01:42:11.509Z,80.30
2017-12-12T01:43:14.072Z,80.20
2017-12-12T01:44:16.582Z,80.30
2017-12-12T01:45:19.097Z,81.00
2017-12-12T01:46:21.618Z,80.30
2017-12-12T01:47:24.130Z,80.40
2017-12-12T01:48:26.705Z,80.60
2017-12-12T01:49:29.223Z,80.60
2017-12-12T01:50:31.730Z,80.80
2017-12-12T01:51:34.238Z,81.00
2017-12-12T01:52:36.761Z,81.20
2017-12-12T01:53:39.302Z,81.10
2017-12-12T01:54:42.588Z,80.90
2017-12-12T01:55:45.890Z,80.80
2017-12-12T01:56:48.400Z,80.80
2017-12-12T01:57:50.956Z,80.90
2017-12-12T01:58:53.477Z,80.90
2017-12-12T01:59:56.778Z,81.00
2017-12-12T02:00:59.290Z,81.00
2017-12-12T02:02:01.801Z,81.00
2017-12-12T02:03:04.373Z,80.90
2017-12-12T02:04:06.887Z,81.00
2017-12-12T02:05:09.446Z,81.00
2017-12-12T02:06:11.958Z,80.80
2017-12-12T02:07:14.481Z,81.00
2017-12-12T02:08:16.992Z,81.10
2017-12-12T02:09:19.550Z,81.20
2017-12-12T02:10:22.837Z,81.60
2017-12-12T02:11:26.131Z,80.90
2017-12-12T02:12:28.652Z,80.80
2017-12-12T02:13:31.153Z,81.10
2017-12-12T02:14:33.708Z,80.90
2017-12-12T02:15:36.981Z,80.70
2017-12-12T02:16:39.490Z,80.70
2017-12-12T02:17:42.040Z,80.80
2017-12-12T02:18:44.552Z,81.00
2017-12-12T02:19:47.065Z,81.00
2017-12-12T02:20:49.594Z,81.00
2017-12-12T02:21:52.105Z,81.00
2017-12-12T02:22:54.663Z,81.20
2017-12-12T02:23:58.214Z,81.90
2017-12-12T02:25:01.529Z,81.80
2017-12-12T02:26:04.813Z,81.60
2017-12-12T02:27:08.082Z,81.70
2017-12-12T02:28:11.405Z,81.80
2017-12-12T02:29:13.945Z,81.80
2017-12-12T02:30:17.286Z,82.00
2017-12-12T02:31:19.797Z,82.00
2017-12-12T02:32:23.071Z,82.20
2017-12-12T02:33:26.361Z,82.00
2017-12-12T02:34:29.653Z,81.90
2017-12-12T02:35:32.958Z,81.80
2017-12-12T02:36:35.501Z,81.70
2017-12-12T02:37:38.808Z,82.00
2017-12-12T02:38:41.330Z,82.00
2017-12-12T02:39:43.858Z,81.90
2017-12-12T02:40:46.369Z,81.70
2017-12-12T02:41:49.661Z,82.10
2017-12-12T02:42:52.974Z,81.30
2017-12-12T02:43:55.481Z,81.30
2017-12-12T02:44:58.004Z,81.60
2017-12-12T02:46:00.519Z,81.70
2017-12-12T02:47:03.052Z,81.70
2017-12-12T02:48:05.754Z,82.00
2017-12-12T02:49:09.161Z,81.90
2017-12-12T02:50:12.458Z,81.90
2017-12-12T02:51:15.765Z,81.80
2017-12-12T02:52:18.276Z,81.80
2017-12-12T02:53:20.824Z,81.80
2017-12-12T02:54:23.339Z,82.00
2017-12-12T02:55:25.876Z,81.80
2017-12-12T02:56:28.386Z,82.00
2017-12-12T02:57:30.901Z,82.10
2017-12-12T02:58:33.461Z,82.00
2017-12-12T02:59:36.106Z,82.20
2017-12-12T03:00:38.625Z,81.80
2017-12-12T03:01:41.902Z,82.20
2017-12-12T03:02:45.176Z,81.80
2017-12-12T03:03:47.747Z,81.80
2017-12-12T03:04:50.261Z,82.00
2017-12-12T03:05:52.781Z,82.40
2017-12-12T03:06:55.660Z,82.30
2017-12-12T03:07:58.209Z,82.50
2017-12-12T03:09:00.769Z,82.50
2017-12-12T03:10:03.282Z,82.40
2017-12-12T03:11:05.794Z,82.40
2017-12-12T03:12:08.345Z,82.50
2017-12-12T03:13:10.852Z,82.60
2017-12-12T03:14:13.352Z,82.90
2017-12-12T03:15:15.868Z,82.70
2017-12-12T03:16:18.380Z,82.90
2017-12-12T03:17:20.934Z,82.70
2017-12-12T03:18:24.204Z,82.90
2017-12-12T03:19:27.482Z,83.10
2017-12-12T03:20:30.798Z,83.20
2017-12-12T03:21:33.361Z,83.10
2017-12-12T03:22:35.877Z,83.10
2017-12-12T03:23:38.394Z,83.10
2017-12-12T03:24:40.922Z,83.20
2017-12-12T03:25:43.557Z,83.20
2017-12-12T03:26:46.078Z,83.40
2017-12-12T03:27:48.601Z,83.70
2017-12-12T03:28:51.106Z,83.60
2017-12-12T03:29:54.381Z,83.50
2017-12-12T03:30:57.709Z,83.30
2017-12-12T03:32:00.220Z,83.20
2017-12-12T03:33:02.733Z,83.20
2017-12-12T03:34:05.239Z,83.30
2017-12-12T03:35:07.781Z,83.70
2017-12-12T03:36:10.290Z,83.90
2017-12-12T03:37:13.566Z,83.30
2017-12-12T03:38:16.081Z,83.60
2017-12-12T03:39:18.585Z,83.70
2017-12-12T03:40:21.131Z,83.60
2017-12-12T03:41:23.641Z,83.70
2017-12-12T03:42:26.148Z,83.80
2017-12-12T03:43:28.657Z,84.00
2017-12-12T03:44:31.176Z,84.10
2017-12-12T03:45:33.730Z,84.20
2017-12-12T03:46:36.244Z,84.40
2017-12-12T03:47:38.866Z,84.50
2017-12-12T03:48:41.393Z,85.10
2017-12-12T03:49:44.686Z,86.70
2017-12-12T03:50:48.006Z,86.70
2017-12-12T03:51:50.530Z,86.50
2017-12-12T03:52:53.049Z,86.50
2017-12-12T03:53:55.587Z,87.80
2017-12-12T03:54:58.097Z,87.90
2017-12-12T03:56:00.668Z,88.80
2017-12-12T03:57:03.177Z,90.10
2017-12-12T03:58:06.458Z,89.90
2017-12-12T03:59:09.749Z,90.20
2017-12-12T04:00:13.030Z,90.00
2017-12-12T04:01:16.367Z,90.20
2017-12-12T04:02:18.889Z,90.20
2017-12-12T04:03:21.407Z,90.00
2017-12-12T04:04:23.923Z,90.10
2017-12-12T04:05:26.442Z,90.10
2017-12-12T04:06:28.985Z,90.10
2017-12-12T04:07:31.525Z,89.60
2017-12-12T04:08:34.041Z,89.60
2017-12-12T04:09:36.558Z,88.90
2017-12-12T04:10:39.077Z,88.50
2017-12-12T04:11:41.632Z,88.60
2017-12-12T04:12:44.137Z,88.40
2017-12-12T04:13:47.414Z,88.20
2017-12-12T04:14:50.713Z,88.00
2017-12-12T04:15:53.248Z,88.00
2017-12-12T04:16:55.759Z,88.00
2017-12-12T04:17:58.307Z,88.10
2017-12-12T04:19:00.816Z,87.30
2017-12-12T04:20:03.474Z,87.00
2017-12-12T04:21:05.997Z,87.40
2017-12-12T04:22:09.277Z,86.80
2017-12-12T04:23:11.791Z,86.90
2017-12-12T04:24:14.300Z,86.90
2017-12-12T04:25:16.851Z,87.50
2017-12-12T04:26:19.370Z,88.50
2017-12-12T04:27:21.889Z,89.30
2017-12-12T04:28:24.402Z,87.90
2017-12-12T04:29:26.918Z,88.40
2017-12-12T04:30:29.461Z,88.90
2017-12-12T04:31:31.973Z,89.40
2017-12-12T04:32:35.249Z,89.00
2017-12-12T04:33:38.619Z,88.90
2017-12-12T04:34:41.138Z,88.80
2017-12-12T04:35:43.657Z,88.80
2017-12-12T04:36:46.943Z,90.00
2017-12-12T04:37:49.482Z,89.50
2017-12-12T04:38:51.997Z,89.80
2017-12-12T04:39:54.525Z,90.00
2017-12-12T04:40:57.033Z,89.50
2017-12-12T04:42:00.157Z,88.80
2017-12-12T04:43:02.700Z,88.80
2017-12-12T04:44:05.374Z,86.90
2017-12-12T04:45:07.881Z,87.30
2017-12-12T04:46:10.390Z,87.90
2017-12-12T04:47:12.912Z,88.30
2017-12-12T04:48:15.424Z,85.40
2017-12-12T04:49:17.977Z,85.10
2017-12-12T04:50:20.506Z,84.50
2017-12-12T04:51:23.015Z,84.10
2017-12-12T04:52:25.524Z,84.30
2017-12-12T04:53:28.077Z,84.10
2017-12-12T04:54:30.583Z,84.90
2017-12-12T04:55:33.859Z,84.30
2017-12-12T04:56:37.138Z,84.70
2017-12-12T04:57:40.431Z,85.10
2017-12-12T04:58:43.761Z,83.90
2017-12-12T04:59:46.285Z,83.90
2017-12-12T05:00:49.561Z,84.70
2017-12-12T05:01:52.075Z,84.70
2017-12-12T05:02:54.594Z,84.00
2017-12-12T05:03:57.138Z,84.70
2017-12-12T05:04:59.645Z,85.10
2017-12-12T05:06:02.929Z,84.30
2017-12-12T05:07:06.224Z,84.80
2017-12-12T05:08:08.765Z,84.80
2017-12-12T05:09:12.049Z,84.70
2017-12-12T05:10:15.354Z,85.00
2017-12-12T05:11:17.877Z,84.90
2017-12-12T05:12:20.425Z,85.00
2017-12-12T05:13:22.932Z,84.50
2017-12-12T05:14:26.216Z,84.00
2017-12-12T05:15:29.513Z,83.20
2017-12-12T05:16:32.055Z,83.20
2017-12-12T05:17:34.565Z,83.30
2017-12-12T05:18:37.110Z,83.60
2017-12-12T05:19:40.386Z,84.50
2017-12-12T05:20:43.662Z,83.60
2017-12-12T05:21:46.986Z,83.60
2017-12-12T05:22:49.492Z,83.60
2017-12-12T05:23:52.021Z,83.80
2017-12-12T05:24:54.536Z,83.70
2017-12-12T05:25:57.102Z,82.70
2017-12-12T05:26:59.614Z,82.30
2017-12-12T05:28:02.137Z,81.90
2017-12-12T05:29:04.649Z,82.30
2017-12-12T05:30:07.222Z,82.00
2017-12-12T05:31:09.767Z,82.00
2017-12-12T05:32:12.280Z,82.00
2017-12-12T05:33:14.789Z,82.00
2017-12-12T05:34:17.333Z,82.10
2017-12-12T05:35:20.857Z,81.60
2017-12-12T05:36:23.381Z,82.90
2017-12-12T05:37:25.889Z,82.30
2017-12-12T05:38:28.434Z,82.00
2017-12-12T05:39:31.759Z,82.70
2017-12-12T05:40:34.278Z,82.60
2017-12-12T05:41:37.565Z,82.20
2017-12-12T05:42:40.845Z,82.40
2017-12-12T05:43:43.381Z,82.40
2017-12-12T05:44:45.925Z,82.80
2017-12-12T05:45:48.436Z,81.60
2017-12-12T05:46:51.713Z,81.60
2017-12-12T05:47:54.230Z,81.60
2017-12-12T05:48:56.742Z,81.70
2017-12-12T05:49:59.298Z,81.70
2017-12-12T05:51:01.814Z,82.00
2017-12-12T05:52:04.329Z,82.90
2017-12-12T05:53:06.850Z,82.50
2017-12-12T05:54:09.426Z,82.00
2017-12-12T05:55:11.997Z,82.50
2017-12-12T05:56:14.506Z,82.40
2017-12-12T05:57:17.030Z,82.00
2017-12-12T05:58:19.573Z,82.80
2017-12-12T05:59:22.086Z,82.30
2017-12-12T06:00:24.600Z,82.20
2017-12-12T06:01:27.122Z,82.80
2017-12-12T06:02:29.638Z,82.80
2017-12-12T06:03:32.201Z,83.00
2017-12-12T06:04:34.705Z,83.30
2017-12-12T06:05:37.235Z,83.00
2017-12-12T06:06:39.748Z,83.00
2017-12-12T06:07:42.292Z,83.40
2017-12-12T06:08:44.816Z,83.00
2017-12-12T06:09:48.120Z,82.80
2017-12-12T06:10:50.636Z,82.80
2017-12-12T06:11:53.169Z,82.80
2017-12-12T06:12:55.696Z,83.20
2017-12-12T06:13:58.229Z,83.20
2017-12-12T06:15:00.801Z,83.80
2017-12-12T06:16:03.317Z,83.70
2017-12-12T06:17:05.833Z,83.90
2017-12-12T06:18:08.353Z,84.10
2017-12-12T06:19:10.865Z,84.10
2017-12-12T06:20:13.413Z,84.80
2017-12-12T06:21:15.939Z,85.20
2017-12-12T06:22:18.494Z,84.40
2017-12-12T06:23:23.133Z,84.20
2017-12-12T06:24:25.641Z,84.20
2017-12-12T06:25:28.148Z,84.60
2017-12-12T06:26:30.691Z,84.90
2017-12-12T06:27:33.974Z,84.80
2017-12-12T06:28:37.294Z,84.50
2017-12-12T06:29:39.801Z,84.50
2017-12-12T06:30:42.309Z,84.70
2017-12-12T06:31:44.825Z,84.00
2017-12-12T06:32:47.359Z,84.30
2017-12-12T06:33:49.910Z,84.20
2017-12-12T06:34:52.425Z,84.40
2017-12-12T06:35:54.937Z,85.50
2017-12-12T06:36:57.449Z,84.80
2017-12-12T06:37:59.968Z,84.40
2017-12-12T06:39:02.510Z,84.80
2017-12-12T06:40:05.021Z,84.80
2017-12-12T06:41:07.534Z,85.60
2017-12-12T06:42:10.068Z,85.50
2017-12-12T06:43:12.589Z,85.50
2017-12-12T06:44:15.913Z,85.40
2017-12-12T06:45:18.423Z,85.40
2017-12-12T06:46:20.928Z,85.00
2017-12-12T06:47:23.437Z,85.10
2017-12-12T06:48:25.950Z,85.20
2017-12-12T06:49:28.497Z,85.40
2017-12-12T06:50:31.778Z,85.90
2017-12-12T06:51:35.060Z,85.90
2017-12-12T06:52:38.372Z,86.20
2017-12-12T06:53:40.877Z,86.00
2017-12-12T06:54:43.394Z,86.00
2017-12-12T06:55:45.970Z,86.10
2017-12-12T06:56:48.514Z,86.10
2017-12-12T06:57:51.794Z,86.30
2017-12-12T06:58:55.101Z,86.10
2017-12-12T06:59:57.613Z,86.10
2017-12-12T07:01:00.126Z,86.40
2017-12-12T07:02:02.682Z,86.20
2017-12-12T07:03:05.949Z,86.80
2017-12-12T07:04:08.462Z,86.90
2017-12-12T07:05:10.964Z,86.80
2017-12-12T07:06:13.478Z,87.00
2017-12-12T07:07:16.032Z,86.70
2017-12-12T07:08:19.309Z,87.10
2017-12-12T07:09:22.592Z,87.40
2017-12-12T07:10:25.869Z,87.40
2017-12-12T07:11:29.146Z,88.20
2017-12-12T07:12:31.711Z,87.40
2017-12-12T07:13:34.226Z,87.20
2017-12-12T07:14:36.736Z,87.80
2017-12-12T07:15:39.255Z,87.30
2017-12-12T07:16:41.764Z,86.90
2017-12-12T07:17:44.300Z,86.90
2017-12-12T07:18:46.814Z,86.90
2017-12-12T07:19:50.095Z,86.90
2017-12-12T07:20:53.368Z,87.20
2017-12-12T07:21:55.877Z,87.20
2017-12-12T07:22:58.439Z,87.00
2017-12-12T07:24:00.967Z,86.90
2017-12-12T07:25:03.484Z,86.90
2017-12-12T07:26:05.999Z,87.20
2017-12-12T07:27:09.314Z,87.50
2017-12-12T07:28:12.624Z,87.80
2017-12-12T07:29:15.142Z,87.80
2017-12-12T07:30:18.418Z,87.10
2017-12-12T07:31:20.936Z,87.10
2017-12-12T07:32:23.449Z,87.50
2017-12-12T07:33:26.001Z,87.60
2017-12-12T07:34:28.521Z,87.80
2017-12-12T07:35:31.057Z,87.70
2017-12-12T07:36:34.331Z,87.80
2017-12-12T07:37:36.845Z,87.80
2017-12-12T07:38:39.396Z,88.30
2017-12-12T07:39:41.917Z,88.60
2017-12-12T07:40:44.468Z,88.50
2017-12-12T07:41:47.009Z,88.60
2017-12-12T07:42:49.529Z,88.70
2017-12-12T07:43:52.822Z,88.60
2017-12-12T07:44:56.137Z,88.90
2017-12-12T07:45:58.654Z,88.90
2017-12-12T07:47:01.171Z,89.00
2017-12-12T07:48:03.703Z,90.00
2017-12-12T07:49:07.039Z,89.20
2017-12-12T07:50:09.567Z,89.20
2017-12-12T07:51:12.093Z,89.30
2017-12-12T07:52:14.643Z,88.70
2017-12-12T07:53:17.157Z,88.90
2017-12-12T07:54:19.683Z,89.10
2017-12-12T07:55:22.237Z,89.00
2017-12-12T07:56:24.753Z,89.20
2017-12-12T07:57:28.029Z,89.00
2017-12-12T07:58:31.306Z,89.30
2017-12-12T07:59:33.823Z,89.30
2017-12-12T08:00:36.369Z,89.00
2017-12-12T08:01:38.913Z,89.00
2017-12-12T08:02:42.194Z,89.70
2017-12-12T08:03:45.470Z,89.20
2017-12-12T08:04:47.992Z,89.20
2017-12-12T08:05:50.526Z,89.30
2017-12-12T08:06:53.088Z,89.30
2017-12-12T08:07:56.370Z,89.20
2017-12-12T08:08:59.657Z,89.30
2017-12-12T08:10:02.929Z,89.10
2017-12-12T08:11:06.218Z,89.40
2017-12-12T08:12:09.530Z,89.00
2017-12-12T08:13:12.046Z,89.00
2017-12-12T08:14:15.419Z,89.00
2017-12-12T08:15:17.933Z,88.30
2017-12-12T08:16:20.441Z,88.50
2017-12-12T08:17:22.949Z,88.20
2017-12-12T08:18:26.230Z,88.00
2017-12-12T08:19:29.546Z,87.80
2017-12-12T08:20:32.067Z,87.80
2017-12-12T08:21:34.584Z,87.90
2017-12-12T08:22:37.093Z,88.70
2017-12-12T08:23:39.633Z,88.30
2017-12-12T08:24:42.185Z,88.10
2017-12-12T08:25:44.694Z,88.50
2017-12-12T08:26:47.215Z,87.80
2017-12-12T08:27:49.723Z,87.50
2017-12-12T08:28:52.239Z,87.90
2017-12-12T08:29:54.783Z,87.90
2017-12-12T08:30:57.299Z,87.80
2017-12-12T08:31:59.818Z,87.70
2017-12-12T08:33:02.341Z,87.80
2017-12-12T08:34:04.906Z,87.00
2017-12-12T08:35:07.428Z,87.30
2017-12-12T08:36:09.972Z,87.30
2017-12-12T08:37:13.245Z,86.60
2017-12-12T08:38:16.531Z,87.10
2017-12-12T08:39:19.806Z,87.10
2017-12-12T08:40:22.373Z,87.20
2017-12-12T08:41:24.922Z,87.50
2017-12-12T08:42:27.432Z,86.50
2017-12-12T08:43:29.951Z,86.50
2017-12-12T08:44:32.471Z,86.20
2017-12-12T08:45:34.981Z,86.20
2017-12-12T08:46:37.530Z,86.00
2017-12-12T08:47:40.047Z,85.40
2017-12-12T08:48:43.332Z,85.80
2017-12-12T08:49:46.613Z,85.50
2017-12-12T08:50:49.935Z,85.40
2017-12-12T08:51:52.444Z,85.40
2017-12-12T08:52:54.965Z,85.50
2017-12-12T08:53:57.476Z,85.30
2017-12-12T08:54:59.999Z,85.40
2017-12-12T08:56:02.554Z,84.80
2017-12-12T08:57:05.073Z,84.90
2017-12-12T08:58:07.593Z,84.60
2017-12-12T08:59:10.101Z,84.60
2017-12-12T09:00:12.665Z,83.60
2017-12-12T09:01:15.176Z,83.80
2017-12-12T09:02:17.792Z,84.40
2017-12-12T09:03:20.302Z,84.70
2017-12-12T09:04:22.817Z,83.90
2017-12-12T09:05:25.356Z,83.70
2017-12-12T09:06:27.919Z,83.90
2017-12-12T09:07:30.430Z,84.00
2017-12-12T09:08:32.962Z,84.00
2017-12-12T09:09:35.481Z,84.70
2017-12-12T09:10:38.773Z,84.20
2017-12-12T09:11:42.097Z,84.10
2017-12-12T09:12:44.606Z,84.00
2017-12-12T09:13:47.896Z,84.50
2017-12-12T09:14:51.179Z,83.90
2017-12-12T09:15:54.537Z,84.20
2017-12-12T09:16:57.081Z,84.10
2017-12-12T09:17:59.630Z,84.20
2017-12-12T09:19:02.170Z,83.90
2017-12-12T09:20:05.481Z,84.10
2017-12-12T09:21:07.994Z,84.10
2017-12-12T09:22:10.513Z,84.00
2017-12-12T09:23:13.025Z,83.20
2017-12-12T09:24:15.541Z,83.40
2017-12-12T09:25:18.094Z,83.20
2017-12-12T09:26:20.626Z,83.10
2017-12-12T09:27:23.141Z,83.00
2017-12-12T09:28:25.655Z,83.20
2017-12-12T09:29:28.169Z,84.00
2017-12-12T09:30:30.717Z,83.30
2017-12-12T09:31:34.001Z,83.70
2017-12-12T09:32:37.288Z,84.20
2017-12-12T09:33:40.562Z,84.10
2017-12-12T09:34:43.851Z,84.10
2017-12-12T09:35:46.409Z,84.00
2017-12-12T09:36:49.684Z,84.50
2017-12-12T09:37:52.961Z,85.40
2017-12-12T09:38:55.474Z,85.40
2017-12-12T09:39:57.989Z,85.00
2017-12-12T09:41:00.623Z,85.50
2017-12-12T09:42:03.156Z,85.40
2017-12-12T09:43:05.666Z,85.00
2017-12-12T09:44:08.177Z,85.80
2017-12-12T09:45:11.498Z,86.20
2017-12-12T09:46:14.011Z,86.20
2017-12-12T09:47:16.525Z,85.80
2017-12-12T09:48:19.039Z,85.70
2017-12-12T09:49:21.557Z,85.30
2017-12-12T09:50:24.109Z,86.00
2017-12-12T09:51:26.631Z,85.70
2017-12-12T09:52:29.169Z,85.10
2017-12-12T09:53:31.684Z,85.00
2017-12-12T09:54:34.970Z,85.30
2017-12-12T09:55:38.280Z,85.20
2017-12-12T09:56:40.789Z,85.20
2017-12-12T09:57:43.302Z,84.80
2017-12-12T09:58:45.817Z,85.00
2017-12-12T09:59:48.366Z,85.20
2017-12-12T10:00:50.882Z,84.90
2017-12-12T10:01:54.197Z,83.40
2017-12-12T10:02:56.719Z,83.30
2017-12-12T10:03:59.996Z,84.00
2017-12-12T10:05:03.284Z,84.60
2017-12-12T10:06:05.799Z,84.10
2017-12-12T10:07:08.349Z,83.50
2017-12-12T10:08:10.865Z,84.10
2017-12-12T10:09:13.389Z,84.00
2017-12-12T10:10:15.953Z,84.30
2017-12-12T10:11:18.469Z,84.10
2017-12-12T10:12:20.982Z,84.10
2017-12-12T10:13:23.490Z,84.10
2017-12-12T10:14:26.001Z,83.90
2017-12-12T10:15:28.549Z,84.30
2017-12-12T10:16:31.830Z,84.60
2017-12-12T10:17:35.104Z,84.80
2017-12-12T10:18:37.614Z,84.50
2017-12-12T10:19:40.123Z,84.30
2017-12-12T10:20:42.670Z,84.40
2017-12-12T10:21:45.198Z,84.60
2017-12-12T10:22:47.748Z,85.20
2017-12-12T10:23:51.029Z,84.20
2017-12-12T10:24:54.308Z,83.70
2017-12-12T10:25:57.625Z,83.80
2017-12-12T10:27:00.151Z,83.60
2017-12-12T10:28:02.680Z,83.40
2017-12-12T10:29:05.207Z,82.90
2017-12-12T10:30:08.489Z,82.30
2017-12-12T10:31:11.031Z,82.90
2017-12-12T10:32:13.585Z,81.50
2017-12-12T10:33:16.106Z,81.50
2017-12-12T10:34:18.614Z,81.60
2017-12-12T10:35:21.134Z,81.40
2017-12-12T10:36:23.821Z,80.80
2017-12-12T10:37:26.371Z,79.90
2017-12-12T10:38:28.934Z,80.30
2017-12-12T10:39:31.446Z,80.60
2017-12-12T10:40:33.967Z,80.80
2017-12-12T10:41:36.481Z,80.60
2017-12-12T10:42:39.002Z,80.20
2017-12-12T10:43:41.559Z,79.30
2017-12-12T10:44:44.092Z,79.50
2017-12-12T10:45:46.606Z,79.40
2017-12-12T10:46:49.122Z,79.80
2017-12-12T10:47:51.652Z,78.80
2017-12-12T10:48:54.200Z,80.10
2017-12-12T10:49:56.712Z,79.40
2017-12-12T10:50:59.259Z,79.70
2017-12-12T10:52:01.758Z,79.60
2017-12-12T10:53:04.270Z,79.00
2017-12-12T10:54:06.833Z,79.50
2017-12-12T10:55:09.345Z,79.70
2017-12-12T10:56:11.856Z,80.20
2017-12-12T10:57:14.408Z,80.40
2017-12-12T10:58:16.938Z,78.90
2017-12-12T10:59:19.457Z,79.20
2017-12-12T11:00:21.980Z,79.90
2017-12-12T11:01:24.491Z,80.00
2017-12-12T11:02:27.037Z,80.60
2017-12-12T11:03:30.317Z,81.00
2017-12-12T11:04:33.662Z,80.60
2017-12-12T11:05:36.172Z,80.50
2017-12-12T11:06:38.717Z,80.10
2017-12-12T11:07:41.231Z,80.60
2017-12-12T11:08:43.782Z,81.30
2017-12-12T11:09:46.298Z,80.30
2017-12-12T11:10:48.819Z,80.70
2017-12-12T11:11:51.368Z,81.50
2017-12-12T11:12:53.885Z,82.00
2017-12-12T11:13:56.433Z,81.90
2017-12-12T11:14:58.949Z,81.70
2017-12-12T11:16:02.274Z,81.40
2017-12-12T11:17:04.786Z,81.40
2017-12-12T11:18:07.448Z,81.00
2017-12-12T11:19:10.003Z,80.80
2017-12-12T11:20:12.518Z,79.90
2017-12-12T11:21:15.027Z,79.20
2017-12-12T11:22:17.545Z,78.80
2017-12-12T11:23:20.827Z,78.20
2017-12-12T11:24:24.145Z,77.90
2017-12-12T11:25:26.653Z,77.90
2017-12-12T11:26:29.165Z,77.60
2017-12-12T11:27:31.669Z,78.60
2017-12-12T11:28:34.188Z,78.00
2017-12-12T11:29:36.774Z,77.80
2017-12-12T11:30:39.347Z,78.30
2017-12-12T11:31:42.581Z,77.60
2017-12-12T11:32:45.893Z,78.40
2017-12-12T11:34:57.205Z,79.40
2017-12-12T11:35:59.709Z,78.60
2017-12-12T11:37:02.987Z,77.90
2017-12-12T11:38:06.301Z,78.30
2017-12-12T11:39:08.832Z,77.90
2017-12-12T11:40:12.122Z,77.60
2017-12-12T11:41:15.418Z,78.40
2017-12-12T11:42:18.697Z,78.50
2017-12-12T11:43:22.025Z,78.30
2017-12-12T11:44:24.537Z,78.30
2017-12-12T11:45:27.823Z,78.30
2017-12-12T11:46:31.101Z,77.00
2017-12-12T11:47:33.610Z,76.90
2017-12-12T11:48:36.159Z,78.30
2017-12-12T11:49:38.669Z,78.10
2017-12-12T11:50:41.200Z,77.40
2017-12-12T11:51:43.829Z,77.70
2017-12-12T11:52:46.350Z,76.90
2017-12-12T11:53:48.887Z,76.70
2017-12-12T11:54:52.182Z,76.50
2017-12-12T11:55:54.693Z,76.60
2017-12-12T11:56:57.207Z,76.80
2017-12-12T11:57:59.742Z,76.10
2017-12-12T11:59:02.289Z,75.40
2017-12-12T12:00:04.866Z,74.80
2017-12-12T12:01:07.416Z,75.30
2017-12-12T12:02:09.938Z,76.30
2017-12-12T12:03:12.449Z,74.90
2017-12-12T12:04:14.965Z,75.40
2017-12-12T12:05:17.481Z,75.40
2017-12-12T12:06:20.035Z,74.70
2017-12-12T12:07:22.546Z,74.80
2017-12-12T12:08:25.828Z,74.30
2017-12-12T12:09:29.101Z,73.80
2017-12-12T12:10:31.612Z,73.80
2017-12-12T12:11:34.162Z,73.90
2017-12-12T12:12:36.678Z,73.70
2017-12-12T12:13:39.196Z,73.80
2017-12-12T12:14:41.734Z,73.50
2017-12-12T12:15:44.300Z,73.70
2017-12-12T12:16:47.587Z,73.50
2017-12-12T12:17:50.869Z,73.60
2017-12-12T12:18:53.382Z,73.60
2017-12-12T12:19:55.909Z,74.60
2017-12-12T12:20:59.220Z,75.30
2017-12-12T12:22:01.728Z,75.20
2017-12-12T12:23:04.247Z,75.50
2017-12-12T12:24:06.787Z,75.10
2017-12-12T12:25:10.068Z,74.90
2017-12-12T12:26:13.381Z,74.40
2017-12-12T12:27:15.899Z,74.40
2017-12-12T12:28:18.407Z,73.80
2017-12-12T12:29:20.920Z,74.30
2017-12-12T12:30:23.437Z,74.90
2017-12-12T12:31:26.002Z,74.80
2017-12-12T12:32:28.511Z,74.90
2017-12-12T12:33:31.017Z,75.00
2017-12-12T12:34:34.302Z,74.70
2017-12-12T12:35:37.590Z,74.20
2017-12-12T12:36:40.911Z,74.30
2017-12-12T12:37:43.421Z,74.90
2017-12-12T12:38:45.934Z,74.40
2017-12-12T12:39:48.499Z,75.00
2017-12-12T12:40:51.773Z,73.80
2017-12-12T12:41:54.291Z,73.70
2017-12-12T12:42:56.797Z,73.80
2017-12-12T12:43:59.332Z,74.10
2017-12-12T12:45:01.885Z,73.90
2017-12-12T12:46:04.406Z,73.60
2017-12-12T12:47:06.931Z,73.50
2017-12-12T12:48:09.441Z,73.40
2017-12-12T12:49:11.953Z,73.80
2017-12-12T12:50:14.513Z,74.70
2017-12-12T12:51:17.033Z,74.90
2017-12-12T12:52:19.545Z,74.80
2017-12-12T12:53:22.064Z,74.70
2017-12-12T12:54:24.577Z,75.10
2017-12-12T12:55:27.150Z,75.10
2017-12-12T12:56:29.665Z,74.90
2017-12-12T12:57:32.185Z,74.60
2017-12-12T12:58:34.749Z,74.80
2017-12-12T12:59:37.258Z,75.00
2017-12-12T13:00:39.772Z,74.80
2017-12-12T13:01:42.283Z,74.60
2017-12-12T13:02:44.798Z,75.10
2017-12-12T13:03:47.368Z,74.20
2017-12-12T13:04:49.881Z,74.30
2017-12-12T13:05:52.393Z,74.90
2017-12-12T13:06:54.900Z,74.70
2017-12-12T13:07:58.189Z,73.80
2017-12-12T13:09:01.502Z,73.60
2017-12-12T13:10:04.015Z,73.60
2017-12-12T13:11:06.527Z,73.60
2017-12-12T13:12:09.046Z,73.70
2017-12-12T13:13:11.595Z,74.00
2017-12-12T13:14:14.107Z,74.40
2017-12-12T13:15:16.617Z,74.00
2017-12-12T13:16:19.133Z,73.60
2017-12-12T13:17:22.418Z,73.10
2017-12-12T13:18:25.739Z,73.60
2017-12-12T13:19:28.293Z,73.60
2017-12-12T13:20:30.805Z,73.50
2017-12-12T13:21:33.311Z,73.60
2017-12-12T13:22:35.821Z,73.40
2017-12-12T13:23:38.327Z,72.60
2017-12-12T13:24:40.885Z,73.10
2017-12-12T13:25:44.178Z,72.30
2017-12-12T13:26:47.449Z,72.60
2017-12-12T13:27:50.721Z,72.80
2017-12-12T13:28:53.241Z,72.70